sensor_id;sensor_type;location;lat;lon;timestamp;temperature;humidity
16511;DHT22;8368;48.772;8.754;2022-08-19T00:01:32;19.10;99.90
16511;DHT22;8368;48.772;8.754;2022-08-19T00:03:59;19.10;99.90
16511;DHT22;8368;48.772;8.754;2022-08-19T00:06:27;19.00;99.90
16511;DHT22;8368;48.772;8.754;2022-08-19T00:08:53;19.00;99.90
16511;DHT22;8368;48.772;8.754;2022-08-19T00:11:19;19.00;99.90
16511;DHT22;8368;48.772;8.754;2022-08-19T00:13:44;19.00;99.90
16511;DHT22;8368;48.772;8.754;2022-08-19T00:16:11;19.00;99.90
16511;DHT22;8368;48.772;8.754;2022-08-19T00:18:37;19.00;99.90
16511;DHT22;8368;48.772;8.754;2022-08-19T00:21:02;19.00;99.90
16511;DHT22;8368;48.772;8.754;2022-08-19T00:23:31;19.00;99.90
16511;DHT22;8368;48.772;8.754;2022-08-19T00:26:00;19.00;99.90
16511;DHT22;8368;48.772;8.754;2022-08-19T00:28:25;19.00;99.90
16511;DHT22;8368;48.772;8.754;2022-08-19T00:30:51;19.00;99.90
16511;DHT22;8368;48.772;8.754;2022-08-19T00:33:18;18.90;99.90
16511;DHT22;8368;48.772;8.754;2022-08-19T00:35:44;18.90;99.90
16511;DHT22;8368;48.772;8.754;2022-08-19T00:38:10;18.90;99.90
16511;DHT22;8368;48.772;8.754;2022-08-19T00:40:35;18.90;99.90
16511;DHT22;8368;48.772;8.754;2022-08-19T00:43:01;18.90;99.90
16511;DHT22;8368;48.772;8.754;2022-08-19T00:45:28;18.90;99.90
16511;DHT22;8368;48.772;8.754;2022-08-19T00:47:55;18.80;99.90
16511;DHT22;8368;48.772;8.754;2022-08-19T00:50:21;18.80;99.90
16511;DHT22;8368;48.772;8.754;2022-08-19T00:52:50;18.80;99.90
16511;DHT22;8368;48.772;8.754;2022-08-19T00:55:20;18.80;99.90
16511;DHT22;8368;48.772;8.754;2022-08-19T00:57:53;18.80;99.90
16511;DHT22;8368;48.772;8.754;2022-08-19T01:00:22;18.80;99.90
16511;DHT22;8368;48.772;8.754;2022-08-19T01:02:48;18.90;99.90
16511;DHT22;8368;48.772;8.754;2022-08-19T01:05:17;18.80;99.90
16511;DHT22;8368;48.772;8.754;2022-08-19T01:07:48;18.80;99.90
16511;DHT22;8368;48.772;8.754;2022-08-19T01:10:17;18.70;99.90
16511;DHT22;8368;48.772;8.754;2022-08-19T01:12:45;18.70;99.90
16511;DHT22;8368;48.772;8.754;2022-08-19T01:15:12;18.70;99.90
16511;DHT22;8368;48.772;8.754;2022-08-19T01:17:41;18.70;99.90
16511;DHT22;8368;48.772;8.754;2022-08-19T01:20:11;18.80;99.90
16511;DHT22;8368;48.772;8.754;2022-08-19T01:22:44;18.70;99.90
16511;DHT22;8368;48.772;8.754;2022-08-19T01:25:10;18.70;99.90
16511;DHT22;8368;48.772;8.754;2022-08-19T01:27:39;18.70;99.90
16511;DHT22;8368;48.772;8.754;2022-08-19T01:30:06;18.70;99.90
16511;DHT22;8368;48.772;8.754;2022-08-19T01:32:32;18.70;99.90
16511;DHT22;8368;48.772;8.754;2022-08-19T01:34:57;18.70;99.90
16511;DHT22;8368;48.772;8.754;2022-08-19T01:37:23;18.70;99.90
16511;DHT22;8368;48.772;8.754;2022-08-19T01:39:49;18.70;99.90
16511;DHT22;8368;48.772;8.754;2022-08-19T01:42:15;18.70;99.90
16511;DHT22;8368;48.772;8.754;2022-08-19T01:44:40;18.70;99.90
16511;DHT22;8368;48.772;8.754;2022-08-19T01:47:08;18.70;99.90
16511;DHT22;8368;48.772;8.754;2022-08-19T01:49:36;18.70;99.90
16511;DHT22;8368;48.772;8.754;2022-08-19T01:52:03;18.70;99.90
16511;DHT22;8368;48.772;8.754;2022-08-19T01:54:28;18.70;99.90
16511;DHT22;8368;48.772;8.754;2022-08-19T01:57:08;18.70;99.90
16511;DHT22;8368;48.772;8.754;2022-08-19T01:59:34;18.70;99.90
16511;DHT22;8368;48.772;8.754;2022-08-19T02:02:02;18.70;99.90
16511;DHT22;8368;48.772;8.754;2022-08-19T02:04:29;18.60;99.90
16511;DHT22;8368;48.772;8.754;2022-08-19T02:06:54;18.60;99.90
16511;DHT22;8368;48.772;8.754;2022-08-19T02:09:20;18.60;99.90
16511;DHT22;8368;48.772;8.754;2022-08-19T02:11:45;18.60;99.90
16511;DHT22;8368;48.772;8.754;2022-08-19T02:14:11;18.60;99.90
16511;DHT22;8368;48.772;8.754;2022-08-19T02:16:37;18.60;99.90
16511;DHT22;8368;48.772;8.754;2022-08-19T02:19:03;18.60;99.90
16511;DHT22;8368;48.772;8.754;2022-08-19T02:21:30;18.50;99.90
16511;DHT22;8368;48.772;8.754;2022-08-19T02:23:56;18.50;99.90
16511;DHT22;8368;48.772;8.754;2022-08-19T02:26:22;18.50;99.90
16511;DHT22;8368;48.772;8.754;2022-08-19T02:28:47;18.50;99.90
16511;DHT22;8368;48.772;8.754;2022-08-19T02:31:16;18.50;99.90
16511;DHT22;8368;48.772;8.754;2022-08-19T02:33:43;18.50;99.90
16511;DHT22;8368;48.772;8.754;2022-08-19T02:36:12;18.40;99.90
16511;DHT22;8368;48.772;8.754;2022-08-19T02:38:39;18.40;99.90
16511;DHT22;8368;48.772;8.754;2022-08-19T02:41:16;18.40;99.90
16511;DHT22;8368;48.772;8.754;2022-08-19T02:43:42;18.30;99.90
16511;DHT22;8368;48.772;8.754;2022-08-19T02:46:15;18.30;99.90
16511;DHT22;8368;48.772;8.754;2022-08-19T02:48:49;18.30;99.90
16511;DHT22;8368;48.772;8.754;2022-08-19T02:51:17;18.30;99.90
16511;DHT22;8368;48.772;8.754;2022-08-19T02:53:44;18.30;99.90
16511;DHT22;8368;48.772;8.754;2022-08-19T02:56:09;18.30;99.90
16511;DHT22;8368;48.772;8.754;2022-08-19T02:58:35;18.30;99.90
16511;DHT22;8368;48.772;8.754;2022-08-19T03:01:01;18.20;99.90
16511;DHT22;8368;48.772;8.754;2022-08-19T03:03:26;18.20;99.90
16511;DHT22;8368;48.772;8.754;2022-08-19T03:06:01;18.20;99.90
16511;DHT22;8368;48.772;8.754;2022-08-19T03:08:27;18.20;99.90
16511;DHT22;8368;48.772;8.754;2022-08-19T03:10:53;18.20;99.90
16511;DHT22;8368;48.772;8.754;2022-08-19T03:13:19;18.20;99.90
16511;DHT22;8368;48.772;8.754;2022-08-19T03:15:46;18.10;99.90
16511;DHT22;8368;48.772;8.754;2022-08-19T03:18:13;18.20;99.90
16511;DHT22;8368;48.772;8.754;2022-08-19T03:20:44;18.10;99.90
16511;DHT22;8368;48.772;8.754;2022-08-19T03:23:11;18.10;99.90
16511;DHT22;8368;48.772;8.754;2022-08-19T03:25:46;18.10;99.90
16511;DHT22;8368;48.772;8.754;2022-08-19T03:28:13;18.10;99.90
16511;DHT22;8368;48.772;8.754;2022-08-19T03:30:41;18.10;99.90
16511;DHT22;8368;48.772;8.754;2022-08-19T03:33:08;18.00;99.90
16511;DHT22;8368;48.772;8.754;2022-08-19T03:35:34;18.00;99.90
16511;DHT22;8368;48.772;8.754;2022-08-19T03:38:06;18.00;99.90
16511;DHT22;8368;48.772;8.754;2022-08-19T03:40:32;18.00;99.90
16511;DHT22;8368;48.772;8.754;2022-08-19T03:43:01;18.00;99.90
16511;DHT22;8368;48.772;8.754;2022-08-19T03:45:27;18.00;99.90
16511;DHT22;8368;48.772;8.754;2022-08-19T03:47:53;17.90;99.90
16511;DHT22;8368;48.772;8.754;2022-08-19T03:50:19;17.90;99.90
16511;DHT22;8368;48.772;8.754;2022-08-19T03:52:49;17.90;99.90
16511;DHT22;8368;48.772;8.754;2022-08-19T03:55:16;17.90;99.90
16511;DHT22;8368;48.772;8.754;2022-08-19T03:57:41;17.80;99.90
16511;DHT22;8368;48.772;8.754;2022-08-19T04:00:08;17.80;99.90
16511;DHT22;8368;48.772;8.754;2022-08-19T04:02:34;17.80;99.90
16511;DHT22;8368;48.772;8.754;2022-08-19T04:05:00;17.80;99.90
16511;DHT22;8368;48.772;8.754;2022-08-19T04:07:26;17.70;99.90
16511;DHT22;8368;48.772;8.754;2022-08-19T04:09:51;17.70;99.90
16511;DHT22;8368;48.772;8.754;2022-08-19T04:12:18;17.80;99.90
16511;DHT22;8368;48.772;8.754;2022-08-19T04:14:45;17.70;99.90
16511;DHT22;8368;48.772;8.754;2022-08-19T04:17:11;17.80;99.90
16511;DHT22;8368;48.772;8.754;2022-08-19T04:19:38;17.80;99.90
16511;DHT22;8368;48.772;8.754;2022-08-19T04:22:04;17.70;99.90
16511;DHT22;8368;48.772;8.754;2022-08-19T04:24:30;17.70;99.90
16511;DHT22;8368;48.772;8.754;2022-08-19T04:26:56;17.70;99.90
16511;DHT22;8368;48.772;8.754;2022-08-19T04:29:24;17.80;99.90
16511;DHT22;8368;48.772;8.754;2022-08-19T04:31:51;17.70;99.90
16511;DHT22;8368;48.772;8.754;2022-08-19T04:34:20;17.70;99.90
16511;DHT22;8368;48.772;8.754;2022-08-19T04:36:49;17.80;99.90
16511;DHT22;8368;48.772;8.754;2022-08-19T04:39:20;17.70;99.90
16511;DHT22;8368;48.772;8.754;2022-08-19T04:41:46;17.80;99.90
16511;DHT22;8368;48.772;8.754;2022-08-19T04:44:32;17.80;99.90
16511;DHT22;8368;48.772;8.754;2022-08-19T04:46:58;17.80;99.90
16511;DHT22;8368;48.772;8.754;2022-08-19T04:49:24;17.80;99.90
16511;DHT22;8368;48.772;8.754;2022-08-19T04:51:52;17.80;99.90
16511;DHT22;8368;48.772;8.754;2022-08-19T04:54:20;17.80;99.90
16511;DHT22;8368;48.772;8.754;2022-08-19T04:56:51;17.90;99.90
16511;DHT22;8368;48.772;8.754;2022-08-19T04:59:18;17.80;99.90
16511;DHT22;8368;48.772;8.754;2022-08-19T05:01:44;17.80;99.90
16511;DHT22;8368;48.772;8.754;2022-08-19T05:04:13;17.80;99.90
16511;DHT22;8368;48.772;8.754;2022-08-19T05:06:39;17.80;99.90
16511;DHT22;8368;48.772;8.754;2022-08-19T05:09:05;17.80;99.90
16511;DHT22;8368;48.772;8.754;2022-08-19T05:11:34;17.70;99.90
16511;DHT22;8368;48.772;8.754;2022-08-19T05:14:00;17.80;99.90
16511;DHT22;8368;48.772;8.754;2022-08-19T05:16:27;17.70;99.90
16511;DHT22;8368;48.772;8.754;2022-08-19T05:18:53;17.70;99.90
16511;DHT22;8368;48.772;8.754;2022-08-19T05:21:39;17.80;99.90
16511;DHT22;8368;48.772;8.754;2022-08-19T05:24:25;17.80;99.90
16511;DHT22;8368;48.772;8.754;2022-08-19T05:26:52;17.80;99.90
16511;DHT22;8368;48.772;8.754;2022-08-19T05:29:23;17.80;99.90
16511;DHT22;8368;48.772;8.754;2022-08-19T05:31:49;17.80;99.90
16511;DHT22;8368;48.772;8.754;2022-08-19T05:34:16;17.90;99.90
16511;DHT22;8368;48.772;8.754;2022-08-19T05:36:43;17.90;99.90
16511;DHT22;8368;48.772;8.754;2022-08-19T05:39:15;17.80;99.90
16511;DHT22;8368;48.772;8.754;2022-08-19T05:41:46;17.90;99.90
16511;DHT22;8368;48.772;8.754;2022-08-19T05:44:13;17.90;99.90
16511;DHT22;8368;48.772;8.754;2022-08-19T05:46:39;17.90;99.90
16511;DHT22;8368;48.772;8.754;2022-08-19T05:49:06;17.90;99.90
16511;DHT22;8368;48.772;8.754;2022-08-19T05:51:33;17.90;99.90
16511;DHT22;8368;48.772;8.754;2022-08-19T05:54:00;17.90;99.90
16511;DHT22;8368;48.772;8.754;2022-08-19T05:56:26;17.80;99.90
16511;DHT22;8368;48.772;8.754;2022-08-19T05:58:52;17.90;99.90
16511;DHT22;8368;48.772;8.754;2022-08-19T06:01:19;18.00;99.90
16511;DHT22;8368;48.772;8.754;2022-08-19T06:03:45;18.00;99.90
16511;DHT22;8368;48.772;8.754;2022-08-19T06:06:15;18.00;99.90
16511;DHT22;8368;48.772;8.754;2022-08-19T06:08:41;18.00;99.90
16511;DHT22;8368;48.772;8.754;2022-08-19T06:11:23;18.00;99.90
16511;DHT22;8368;48.772;8.754;2022-08-19T06:13:52;18.00;99.90
16511;DHT22;8368;48.772;8.754;2022-08-19T06:16:21;18.00;99.90
16511;DHT22;8368;48.772;8.754;2022-08-19T06:18:52;18.10;99.90
16511;DHT22;8368;48.772;8.754;2022-08-19T06:21:22;18.10;99.90
16511;DHT22;8368;48.772;8.754;2022-08-19T06:23:49;18.10;99.90
16511;DHT22;8368;48.772;8.754;2022-08-19T06:26:16;18.00;99.90
16511;DHT22;8368;48.772;8.754;2022-08-19T06:28:42;18.20;99.90
16511;DHT22;8368;48.772;8.754;2022-08-19T06:31:18;18.20;99.90
16511;DHT22;8368;48.772;8.754;2022-08-19T06:33:46;18.20;99.90
16511;DHT22;8368;48.772;8.754;2022-08-19T06:36:25;18.20;99.90
16511;DHT22;8368;48.772;8.754;2022-08-19T06:38:58;18.30;99.90
16511;DHT22;8368;48.772;8.754;2022-08-19T06:41:25;18.30;99.90
16511;DHT22;8368;48.772;8.754;2022-08-19T06:43:51;18.30;99.90
16511;DHT22;8368;48.772;8.754;2022-08-19T06:46:17;18.40;99.90
16511;DHT22;8368;48.772;8.754;2022-08-19T06:48:46;18.40;99.90
16511;DHT22;8368;48.772;8.754;2022-08-19T06:51:13;18.50;99.90
16511;DHT22;8368;48.772;8.754;2022-08-19T06:53:41;18.50;99.90
16511;DHT22;8368;48.772;8.754;2022-08-19T06:56:13;18.50;99.90
16511;DHT22;8368;48.772;8.754;2022-08-19T06:58:39;18.60;99.90
16511;DHT22;8368;48.772;8.754;2022-08-19T07:01:05;18.60;99.90
16511;DHT22;8368;48.772;8.754;2022-08-19T07:03:33;18.70;99.90
16511;DHT22;8368;48.772;8.754;2022-08-19T07:06:05;18.70;99.90
16511;DHT22;8368;48.772;8.754;2022-08-19T07:08:33;18.70;99.90
16511;DHT22;8368;48.772;8.754;2022-08-19T07:10:59;18.70;99.90
16511;DHT22;8368;48.772;8.754;2022-08-19T07:13:25;18.70;99.90
16511;DHT22;8368;48.772;8.754;2022-08-19T07:15:51;18.70;99.90
16511;DHT22;8368;48.772;8.754;2022-08-19T07:18:18;18.70;99.90
16511;DHT22;8368;48.772;8.754;2022-08-19T07:20:45;18.70;99.90
16511;DHT22;8368;48.772;8.754;2022-08-19T07:23:10;18.70;99.90
16511;DHT22;8368;48.772;8.754;2022-08-19T07:25:37;18.80;99.90
16511;DHT22;8368;48.772;8.754;2022-08-19T07:28:04;18.80;99.90
16511;DHT22;8368;48.772;8.754;2022-08-19T07:30:30;18.80;99.90
16511;DHT22;8368;48.772;8.754;2022-08-19T07:32:56;18.90;99.90
16511;DHT22;8368;48.772;8.754;2022-08-19T07:35:22;18.90;99.90
16511;DHT22;8368;48.772;8.754;2022-08-19T07:37:49;18.90;99.90
16511;DHT22;8368;48.772;8.754;2022-08-19T07:40:14;18.80;99.90
16511;DHT22;8368;48.772;8.754;2022-08-19T07:42:40;18.80;99.90
16511;DHT22;8368;48.772;8.754;2022-08-19T07:45:07;18.80;99.90
16511;DHT22;8368;48.772;8.754;2022-08-19T07:47:33;18.80;99.90
16511;DHT22;8368;48.772;8.754;2022-08-19T07:49:59;18.80;99.90
16511;DHT22;8368;48.772;8.754;2022-08-19T07:52:24;18.90;99.90
16511;DHT22;8368;48.772;8.754;2022-08-19T07:54:50;19.00;99.90
16511;DHT22;8368;48.772;8.754;2022-08-19T07:57:16;19.20;99.90
16511;DHT22;8368;48.772;8.754;2022-08-19T07:59:42;19.30;99.90
16511;DHT22;8368;48.772;8.754;2022-08-19T08:02:08;19.40;99.90
16511;DHT22;8368;48.772;8.754;2022-08-19T08:04:34;19.70;99.90
16511;DHT22;8368;48.772;8.754;2022-08-19T08:07:19;19.80;99.90
16511;DHT22;8368;48.772;8.754;2022-08-19T08:10:05;20.10;99.90
16511;DHT22;8368;48.772;8.754;2022-08-19T08:12:38;20.30;99.90
16511;DHT22;8368;48.772;8.754;2022-08-19T08:15:10;20.50;99.90
16511;DHT22;8368;48.772;8.754;2022-08-19T08:17:35;20.50;99.90
16511;DHT22;8368;48.772;8.754;2022-08-19T08:20:04;20.50;99.90
16511;DHT22;8368;48.772;8.754;2022-08-19T08:22:32;20.40;99.90
16511;DHT22;8368;48.772;8.754;2022-08-19T08:25:19;20.50;99.90
16511;DHT22;8368;48.772;8.754;2022-08-19T08:27:46;20.60;99.90
16511;DHT22;8368;48.772;8.754;2022-08-19T08:30:15;20.70;99.90
16511;DHT22;8368;48.772;8.754;2022-08-19T08:32:41;20.80;99.90
16511;DHT22;8368;48.772;8.754;2022-08-19T08:35:10;20.90;99.90
16511;DHT22;8368;48.772;8.754;2022-08-19T08:37:37;20.90;99.90
16511;DHT22;8368;48.772;8.754;2022-08-19T08:40:14;20.80;99.90
16511;DHT22;8368;48.772;8.754;2022-08-19T08:42:48;20.80;99.90
16511;DHT22;8368;48.772;8.754;2022-08-19T08:45:18;20.70;99.90
16511;DHT22;8368;48.772;8.754;2022-08-19T08:47:47;20.50;99.90
16511;DHT22;8368;48.772;8.754;2022-08-19T08:50:27;20.50;99.90
16511;DHT22;8368;48.772;8.754;2022-08-19T08:52:56;20.50;99.90
16511;DHT22;8368;48.772;8.754;2022-08-19T08:55:27;20.30;99.90
16511;DHT22;8368;48.772;8.754;2022-08-19T08:58:06;20.30;99.90
16511;DHT22;8368;48.772;8.754;2022-08-19T09:00:38;20.30;99.90
16511;DHT22;8368;48.772;8.754;2022-08-19T09:03:10;20.40;99.90
16511;DHT22;8368;48.772;8.754;2022-08-19T09:05:56;20.40;99.90
16511;DHT22;8368;48.772;8.754;2022-08-19T09:08:33;20.50;99.90
16511;DHT22;8368;48.772;8.754;2022-08-19T09:11:07;20.50;99.90
16511;DHT22;8368;48.772;8.754;2022-08-19T09:14:02;20.60;99.90
16511;DHT22;8368;48.772;8.754;2022-08-19T09:16:32;20.50;99.90
16511;DHT22;8368;48.772;8.754;2022-08-19T09:19:03;20.50;99.90
16511;DHT22;8368;48.772;8.754;2022-08-19T09:21:29;20.50;99.90
16511;DHT22;8368;48.772;8.754;2022-08-19T09:23:54;20.60;99.90
16511;DHT22;8368;48.772;8.754;2022-08-19T09:26:22;20.50;99.90
16511;DHT22;8368;48.772;8.754;2022-08-19T09:28:49;20.50;99.90
16511;DHT22;8368;48.772;8.754;2022-08-19T09:31:24;20.40;99.90
16511;DHT22;8368;48.772;8.754;2022-08-19T09:33:51;20.40;99.90
16511;DHT22;8368;48.772;8.754;2022-08-19T09:36:20;20.50;99.90
16511;DHT22;8368;48.772;8.754;2022-08-19T09:38:48;20.50;99.90
16511;DHT22;8368;48.772;8.754;2022-08-19T09:41:16;20.40;99.90
16511;DHT22;8368;48.772;8.754;2022-08-19T09:43:45;20.60;99.90
16511;DHT22;8368;48.772;8.754;2022-08-19T09:46:12;20.50;99.90
16511;DHT22;8368;48.772;8.754;2022-08-19T09:48:39;20.60;99.90
16511;DHT22;8368;48.772;8.754;2022-08-19T09:51:16;20.70;99.90
16511;DHT22;8368;48.772;8.754;2022-08-19T09:53:43;20.70;99.90
16511;DHT22;8368;48.772;8.754;2022-08-19T09:56:09;20.80;99.90
16511;DHT22;8368;48.772;8.754;2022-08-19T09:58:36;20.80;99.90
16511;DHT22;8368;48.772;8.754;2022-08-19T10:01:03;20.90;99.90
16511;DHT22;8368;48.772;8.754;2022-08-19T10:03:30;21.10;99.90
16511;DHT22;8368;48.772;8.754;2022-08-19T10:05:59;21.20;99.90
16511;DHT22;8368;48.772;8.754;2022-08-19T10:08:27;21.10;99.90
16511;DHT22;8368;48.772;8.754;2022-08-19T10:10:54;21.10;99.90
16511;DHT22;8368;48.772;8.754;2022-08-19T10:13:23;21.10;99.90
16511;DHT22;8368;48.772;8.754;2022-08-19T10:15:51;21.10;99.90
16511;DHT22;8368;48.772;8.754;2022-08-19T10:18:18;21.10;99.90
16511;DHT22;8368;48.772;8.754;2022-08-19T10:20:46;21.20;99.90
16511;DHT22;8368;48.772;8.754;2022-08-19T10:23:12;21.30;99.90
16511;DHT22;8368;48.772;8.754;2022-08-19T10:25:38;21.30;99.90
16511;DHT22;8368;48.772;8.754;2022-08-19T10:28:04;21.30;99.90
16511;DHT22;8368;48.772;8.754;2022-08-19T10:30:31;21.50;99.90
16511;DHT22;8368;48.772;8.754;2022-08-19T10:32:57;21.60;99.90
16511;DHT22;8368;48.772;8.754;2022-08-19T10:35:23;21.70;99.90
16511;DHT22;8368;48.772;8.754;2022-08-19T10:37:51;21.70;99.90
16511;DHT22;8368;48.772;8.754;2022-08-19T10:40:17;21.80;99.90
16511;DHT22;8368;48.772;8.754;2022-08-19T10:42:42;21.70;99.90
16511;DHT22;8368;48.772;8.754;2022-08-19T10:45:10;21.70;99.90
16511;DHT22;8368;48.772;8.754;2022-08-19T10:47:36;21.70;99.90
16511;DHT22;8368;48.772;8.754;2022-08-19T10:50:02;21.70;99.90
16511;DHT22;8368;48.772;8.754;2022-08-19T10:52:48;21.80;99.90
16511;DHT22;8368;48.772;8.754;2022-08-19T10:55:14;21.80;99.90
16511;DHT22;8368;48.772;8.754;2022-08-19T10:57:58;21.80;99.90
16511;DHT22;8368;48.772;8.754;2022-08-19T11:00:24;21.60;99.90
16511;DHT22;8368;48.772;8.754;2022-08-19T11:02:51;21.60;99.90
16511;DHT22;8368;48.772;8.754;2022-08-19T11:05:18;21.70;99.90
16511;DHT22;8368;48.772;8.754;2022-08-19T11:07:44;21.80;99.90
16511;DHT22;8368;48.772;8.754;2022-08-19T11:10:12;21.70;99.90
16511;DHT22;8368;48.772;8.754;2022-08-19T11:12:38;21.70;99.90
16511;DHT22;8368;48.772;8.754;2022-08-19T11:15:06;21.70;99.90
16511;DHT22;8368;48.772;8.754;2022-08-19T11:17:32;21.70;99.90
16511;DHT22;8368;48.772;8.754;2022-08-19T11:19:58;21.70;99.90
16511;DHT22;8368;48.772;8.754;2022-08-19T11:22:27;21.90;99.90
16511;DHT22;8368;48.772;8.754;2022-08-19T11:24:52;21.90;99.90
16511;DHT22;8368;48.772;8.754;2022-08-19T11:27:18;22.00;99.90
16511;DHT22;8368;48.772;8.754;2022-08-19T11:29:43;22.10;99.90
16511;DHT22;8368;48.772;8.754;2022-08-19T11:32:10;22.50;99.90
16511;DHT22;8368;48.772;8.754;2022-08-19T11:34:36;22.60;99.90
16511;DHT22;8368;48.772;8.754;2022-08-19T11:37:02;22.60;99.90
16511;DHT22;8368;48.772;8.754;2022-08-19T11:39:30;22.50;99.90
16511;DHT22;8368;48.772;8.754;2022-08-19T11:41:58;22.40;99.90
16511;DHT22;8368;48.772;8.754;2022-08-19T11:44:24;22.30;99.90
16511;DHT22;8368;48.772;8.754;2022-08-19T11:46:49;22.30;99.90
16511;DHT22;8368;48.772;8.754;2022-08-19T11:49:17;22.50;99.90
16511;DHT22;8368;48.772;8.754;2022-08-19T11:51:44;22.90;99.90
16511;DHT22;8368;48.772;8.754;2022-08-19T11:54:12;23.20;99.90
16511;DHT22;8368;48.772;8.754;2022-08-19T11:56:38;23.10;99.90
16511;DHT22;8368;48.772;8.754;2022-08-19T11:59:04;23.20;99.90
16511;DHT22;8368;48.772;8.754;2022-08-19T12:01:30;23.30;99.90
16511;DHT22;8368;48.772;8.754;2022-08-19T12:03:57;23.50;99.90
16511;DHT22;8368;48.772;8.754;2022-08-19T12:06:28;23.50;99.90
16511;DHT22;8368;48.772;8.754;2022-08-19T12:08:59;23.50;99.90
16511;DHT22;8368;48.772;8.754;2022-08-19T12:11:25;23.40;99.90
16511;DHT22;8368;48.772;8.754;2022-08-19T12:13:51;23.30;99.90
16511;DHT22;8368;48.772;8.754;2022-08-19T12:16:21;23.20;99.90
16511;DHT22;8368;48.772;8.754;2022-08-19T12:18:48;23.40;99.90
16511;DHT22;8368;48.772;8.754;2022-08-19T12:21:15;23.60;99.90
16511;DHT22;8368;48.772;8.754;2022-08-19T12:23:42;23.90;99.90
16511;DHT22;8368;48.772;8.754;2022-08-19T12:26:10;24.10;99.90
16511;DHT22;8368;48.772;8.754;2022-08-19T12:28:36;24.30;99.90
16511;DHT22;8368;48.772;8.754;2022-08-19T12:31:01;24.70;99.90
16511;DHT22;8368;48.772;8.754;2022-08-19T12:33:27;24.90;99.90
16511;DHT22;8368;48.772;8.754;2022-08-19T12:35:54;24.70;99.90
16511;DHT22;8368;48.772;8.754;2022-08-19T12:38:21;24.50;99.90
16511;DHT22;8368;48.772;8.754;2022-08-19T12:40:49;24.60;99.90
16511;DHT22;8368;48.772;8.754;2022-08-19T12:43:17;24.60;99.90
16511;DHT22;8368;48.772;8.754;2022-08-19T12:45:44;24.60;99.90
16511;DHT22;8368;48.772;8.754;2022-08-19T12:48:10;24.60;99.90
16511;DHT22;8368;48.772;8.754;2022-08-19T12:50:38;24.60;99.90
16511;DHT22;8368;48.772;8.754;2022-08-19T12:53:04;24.60;99.90
16511;DHT22;8368;48.772;8.754;2022-08-19T12:55:30;24.70;99.90
16511;DHT22;8368;48.772;8.754;2022-08-19T12:57:55;24.40;99.90
16511;DHT22;8368;48.772;8.754;2022-08-19T13:00:22;24.60;99.90
16511;DHT22;8368;48.772;8.754;2022-08-19T13:02:50;24.90;99.90
16511;DHT22;8368;48.772;8.754;2022-08-19T13:05:22;25.10;99.90
16511;DHT22;8368;48.772;8.754;2022-08-19T13:07:50;25.20;99.90
16511;DHT22;8368;48.772;8.754;2022-08-19T13:10:19;25.20;99.90
16511;DHT22;8368;48.772;8.754;2022-08-19T13:12:47;25.00;99.90
16511;DHT22;8368;48.772;8.754;2022-08-19T13:15:14;24.80;99.90
16511;DHT22;8368;48.772;8.754;2022-08-19T13:17:43;24.50;99.90
16511;DHT22;8368;48.772;8.754;2022-08-19T13:20:10;24.20;99.90
16511;DHT22;8368;48.772;8.754;2022-08-19T13:22:37;24.20;99.90
16511;DHT22;8368;48.772;8.754;2022-08-19T13:25:04;24.20;99.90
16511;DHT22;8368;48.772;8.754;2022-08-19T13:27:30;24.00;99.90
16511;DHT22;8368;48.772;8.754;2022-08-19T13:29:56;24.00;99.90
16511;DHT22;8368;48.772;8.754;2022-08-19T13:32:40;24.00;99.90
16511;DHT22;8368;48.772;8.754;2022-08-19T13:35:24;23.80;99.90
16511;DHT22;8368;48.772;8.754;2022-08-19T13:37:50;23.80;99.90
16511;DHT22;8368;48.772;8.754;2022-08-19T13:40:18;24.00;99.90
16511;DHT22;8368;48.772;8.754;2022-08-19T13:42:50;24.00;99.90
16511;DHT22;8368;48.772;8.754;2022-08-19T13:45:19;23.90;99.90
16511;DHT22;8368;48.772;8.754;2022-08-19T13:47:47;24.00;99.90
16511;DHT22;8368;48.772;8.754;2022-08-19T13:50:18;23.90;99.90
16511;DHT22;8368;48.772;8.754;2022-08-19T13:52:45;24.00;99.90
16511;DHT22;8368;48.772;8.754;2022-08-19T13:55:11;24.20;99.90
16511;DHT22;8368;48.772;8.754;2022-08-19T13:57:38;24.40;99.90
16511;DHT22;8368;48.772;8.754;2022-08-19T14:00:08;24.70;99.90
16511;DHT22;8368;48.772;8.754;2022-08-19T14:02:36;24.80;99.90
16511;DHT22;8368;48.772;8.754;2022-08-19T14:05:04;24.90;99.90
16511;DHT22;8368;48.772;8.754;2022-08-19T14:07:30;24.80;99.90
16511;DHT22;8368;48.772;8.754;2022-08-19T14:09:55;24.70;99.90
16511;DHT22;8368;48.772;8.754;2022-08-19T14:12:21;24.50;99.90
16511;DHT22;8368;48.772;8.754;2022-08-19T14:14:47;24.60;99.90
16511;DHT22;8368;48.772;8.754;2022-08-19T14:17:12;24.50;99.90
16511;DHT22;8368;48.772;8.754;2022-08-19T14:19:38;24.40;99.90
16511;DHT22;8368;48.772;8.754;2022-08-19T14:22:04;24.40;99.90
16511;DHT22;8368;48.772;8.754;2022-08-19T14:24:30;24.40;99.90
16511;DHT22;8368;48.772;8.754;2022-08-19T14:26:57;24.20;99.90
16511;DHT22;8368;48.772;8.754;2022-08-19T14:29:23;24.10;99.90
16511;DHT22;8368;48.772;8.754;2022-08-19T14:31:48;23.80;99.90
16511;DHT22;8368;48.772;8.754;2022-08-19T14:34:14;23.60;99.90
16511;DHT22;8368;48.772;8.754;2022-08-19T14:36:39;23.50;99.90
16511;DHT22;8368;48.772;8.754;2022-08-19T14:39:07;23.40;99.90
16511;DHT22;8368;48.772;8.754;2022-08-19T14:41:32;23.20;99.90
16511;DHT22;8368;48.772;8.754;2022-08-19T14:43:59;23.20;99.90
16511;DHT22;8368;48.772;8.754;2022-08-19T14:46:27;23.10;99.90
16511;DHT22;8368;48.772;8.754;2022-08-19T14:48:54;23.00;99.90
16511;DHT22;8368;48.772;8.754;2022-08-19T14:51:21;22.90;99.90
16511;DHT22;8368;48.772;8.754;2022-08-19T14:53:47;23.00;99.90
16511;DHT22;8368;48.772;8.754;2022-08-19T14:56:19;23.00;99.90
16511;DHT22;8368;48.772;8.754;2022-08-19T14:58:45;23.10;99.90
16511;DHT22;8368;48.772;8.754;2022-08-19T15:01:12;23.20;99.90
16511;DHT22;8368;48.772;8.754;2022-08-19T15:03:38;23.20;99.90
16511;DHT22;8368;48.772;8.754;2022-08-19T15:06:07;23.30;99.90
16511;DHT22;8368;48.772;8.754;2022-08-19T15:08:36;23.50;99.90
16511;DHT22;8368;48.772;8.754;2022-08-19T15:11:02;23.60;99.90
16511;DHT22;8368;48.772;8.754;2022-08-19T15:13:29;23.80;99.90
16511;DHT22;8368;48.772;8.754;2022-08-19T15:15:55;23.90;99.90
16511;DHT22;8368;48.772;8.754;2022-08-19T15:18:21;23.90;99.90
16511;DHT22;8368;48.772;8.754;2022-08-19T15:20:50;24.00;99.90
16511;DHT22;8368;48.772;8.754;2022-08-19T15:23:18;24.10;99.90
16511;DHT22;8368;48.772;8.754;2022-08-19T15:25:44;24.10;99.90
16511;DHT22;8368;48.772;8.754;2022-08-19T15:28:10;24.00;99.90
16511;DHT22;8368;48.772;8.754;2022-08-19T15:30:37;24.00;99.90
16511;DHT22;8368;48.772;8.754;2022-08-19T15:33:03;23.80;99.90
16511;DHT22;8368;48.772;8.754;2022-08-19T15:35:30;23.90;99.90
16511;DHT22;8368;48.772;8.754;2022-08-19T15:37:56;23.90;99.90
16511;DHT22;8368;48.772;8.754;2022-08-19T15:40:23;24.00;99.90
16511;DHT22;8368;48.772;8.754;2022-08-19T15:42:49;23.90;99.90
16511;DHT22;8368;48.772;8.754;2022-08-19T15:45:16;23.80;99.90
16511;DHT22;8368;48.772;8.754;2022-08-19T15:47:41;23.80;99.90
16511;DHT22;8368;48.772;8.754;2022-08-19T15:50:19;23.80;99.90